Scott, Indiana
Current Conditions -  °F | °C
As of 7:35 AM on Saturday 20 Dec 2014 (Local Time) from KANQ Reporting Station
Broken Clouds Broken Clouds  
Wind Chill: 21°   Ceiling: 1800
Heat Index: 21°   Visibility: 5mi
Dew Point: 19°   Wind: 0mph
Humidity: 93%   Direction: NA
Pressure: 30.25"   Gusts: NA
Location:  41.6594°N, 85.0055°W
Report Text: KANQ 201235Z AUTO 00000KT 5SM BKN018 M06/M07 A3025 RMK
Loading
Personal Weather Stations






























Interactive Weather Map New forecast layout! Learn more

10-Day Weather Forecast

Advertisements
Track Severe Weather on mobile